sensor_id;sensor_type;location;lat;lon;timestamp;temperature;humidity
16674;DHT22;8450;52.654;10.326;2023-06-04T07:50:24;16.10;99.90
16674;DHT22;8450;52.654;10.326;2023-06-04T07:52:50;16.10;99.90
16674;DHT22;8450;52.654;10.326;2023-06-04T07:55:16;16.20;99.90
16674;DHT22;8450;52.654;10.326;2023-06-04T07:57:42;16.30;99.90
16674;DHT22;8450;52.654;10.326;2023-06-04T08:00:08;16.80;99.90
16674;DHT22;8450;52.654;10.326;2023-06-04T08:02:40;17.40;99.90
16674;DHT22;8450;52.654;10.326;2023-06-04T08:05:06;18.10;99.90
16674;DHT22;8450;52.654;10.326;2023-06-04T08:07:32;18.80;99.90
16674;DHT22;8450;52.654;10.326;2023-06-04T08:09:57;19.10;99.90
16674;DHT22;8450;52.654;10.326;2023-06-04T08:12:23;19.70;99.90
16674;DHT22;8450;52.654;10.326;2023-06-04T08:14:48;20.20;99.40
16674;DHT22;8450;52.654;10.326;2023-06-04T08:17:16;20.60;99.60
16674;DHT22;8450;52.654;10.326;2023-06-04T08:19:42;21.20;97.70
16674;DHT22;8450;52.654;10.326;2023-06-04T08:22:08;21.80;98.10
16674;DHT22;8450;52.654;10.326;2023-06-04T08:24:36;22.30;96.70
16674;DHT22;8450;52.654;10.326;2023-06-04T08:27:02;21.70;96.50
16674;DHT22;8450;52.654;10.326;2023-06-04T08:29:30;23.30;96.20
16674;DHT22;8450;52.654;10.326;2023-06-04T08:31:56;23.80;95.40
16674;DHT22;8450;52.654;10.326;2023-06-04T08:34:22;23.50;92.60
16674;DHT22;8450;52.654;10.326;2023-06-04T08:36:47;23.00;93.60
16674;DHT22;8450;52.654;10.326;2023-06-04T08:39:13;22.10;93.60
16674;DHT22;8450;52.654;10.326;2023-06-04T08:41:49;22.80;94.40
16674;DHT22;8450;52.654;10.326;2023-06-04T08:44:16;23.60;93.10
16674;DHT22;8450;52.654;10.326;2023-06-04T08:46:43;24.50;93.40
16674;DHT22;8450;52.654;10.326;2023-06-04T08:49:09;24.70;93.10
16674;DHT22;8450;52.654;10.326;2023-06-04T08:51:37;24.30;93.20
16674;DHT22;8450;52.654;10.326;2023-06-04T08:54:09;25.00;91.60
16674;DHT22;8450;52.654;10.326;2023-06-04T08:56:35;24.80;90.70
16674;DHT22;8450;52.654;10.326;2023-06-04T08:59:30;24.80;90.50
16674;DHT22;8450;52.654;10.326;2023-06-04T09:01:56;25.80;92.10
16674;DHT22;8450;52.654;10.326;2023-06-04T09:04:26;26.00;90.40
16674;DHT22;8450;52.654;10.326;2023-06-04T09:06:53;25.70;90.80
16674;DHT22;8450;52.654;10.326;2023-06-04T09:09:21;26.60;90.90
16674;DHT22;8450;52.654;10.326;2023-06-04T09:11:56;26.50;91.90
16674;DHT22;8450;52.654;10.326;2023-06-04T09:14:31;26.40;91.00
16674;DHT22;8450;52.654;10.326;2023-06-04T09:16:58;27.70;89.90
16674;DHT22;8450;52.654;10.326;2023-06-04T09:19:24;26.90;89.40
16674;DHT22;8450;52.654;10.326;2023-06-04T09:21:58;26.90;85.30
16674;DHT22;8450;52.654;10.326;2023-06-04T09:24:25;26.90;88.70
16674;DHT22;8450;52.654;10.326;2023-06-04T09:26:52;26.80;88.80
16674;DHT22;8450;52.654;10.326;2023-06-04T09:29:18;27.30;88.90
16674;DHT22;8450;52.654;10.326;2023-06-04T09:31:57;26.40;84.80
16674;DHT22;8450;52.654;10.326;2023-06-04T09:34:29;26.30;82.80
16674;DHT22;8450;52.654;10.326;2023-06-04T09:36:55;24.80;82.70
16674;DHT22;8450;52.654;10.326;2023-06-04T09:39:21;23.90;83.50
16674;DHT22;8450;52.654;10.326;2023-06-04T09:41:59;24.40;86.60
16674;DHT22;8450;52.654;10.326;2023-06-04T09:44:25;26.20;85.90
16674;DHT22;8450;52.654;10.326;2023-06-04T09:46:56;26.60;85.90
16674;DHT22;8450;52.654;10.326;2023-06-04T09:49:21;27.80;83.00
16674;DHT22;8450;52.654;10.326;2023-06-04T09:51:48;27.10;82.50
16674;DHT22;8450;52.654;10.326;2023-06-04T09:54:14;27.80;79.90
16674;DHT22;8450;52.654;10.326;2023-06-04T09:56:40;27.20;83.50
16674;DHT22;8450;52.654;10.326;2023-06-04T09:59:08;27.60;82.10
16674;DHT22;8450;52.654;10.326;2023-06-04T10:01:38;28.10;83.30
16674;DHT22;8450;52.654;10.326;2023-06-04T10:04:07;28.70;81.90
16674;DHT22;8450;52.654;10.326;2023-06-04T10:06:34;29.00;80.10
16674;DHT22;8450;52.654;10.326;2023-06-04T10:09:06;29.40;80.30
16674;DHT22;8450;52.654;10.326;2023-06-04T10:11:48;27.10;77.80
16674;DHT22;8450;52.654;10.326;2023-06-04T10:14:23;29.40;80.30
16674;DHT22;8450;52.654;10.326;2023-06-04T10:16:51;28.50;82.70
16674;DHT22;8450;52.654;10.326;2023-06-04T10:19:18;28.20;80.50
16674;DHT22;8450;52.654;10.326;2023-06-04T10:21:44;27.80;80.40
16674;DHT22;8450;52.654;10.326;2023-06-04T10:24:09;28.50;81.30
16674;DHT22;8450;52.654;10.326;2023-06-04T10:26:36;28.90;80.50
16674;DHT22;8450;52.654;10.326;2023-06-04T10:29:02;27.80;77.90
16674;DHT22;8450;52.654;10.326;2023-06-04T10:31:29;28.00;79.40
16674;DHT22;8450;52.654;10.326;2023-06-04T10:33:55;27.90;80.20
16674;DHT22;8450;52.654;10.326;2023-06-04T10:36:22;27.50;79.00
16674;DHT22;8450;52.654;10.326;2023-06-04T10:38:54;25.40;80.00
16674;DHT22;8450;52.654;10.326;2023-06-04T10:41:21;25.80;81.70
16674;DHT22;8450;52.654;10.326;2023-06-04T10:43:49;25.80;81.30
16674;DHT22;8450;52.654;10.326;2023-06-04T10:46:19;24.70;80.10
16674;DHT22;8450;52.654;10.326;2023-06-04T10:48:52;24.90;85.10
16674;DHT22;8450;52.654;10.326;2023-06-04T10:51:32;25.20;78.70
16674;DHT22;8450;52.654;10.326;2023-06-04T10:53:59;25.20;84.30
16674;DHT22;8450;52.654;10.326;2023-06-04T10:56:32;25.50;83.40
16674;DHT22;8450;52.654;10.326;2023-06-04T10:58:59;25.40;84.00
16674;DHT22;8450;52.654;10.326;2023-06-04T11:01:28;24.70;80.30
16674;DHT22;8450;52.654;10.326;2023-06-04T11:03:55;24.20;80.80
16674;DHT22;8450;52.654;10.326;2023-06-04T11:06:21;24.40;83.20
16674;DHT22;8450;52.654;10.326;2023-06-04T11:08:47;24.60;84.50
16674;DHT22;8450;52.654;10.326;2023-06-04T11:11:14;24.90;82.20
16674;DHT22;8450;52.654;10.326;2023-06-04T11:13:41;24.80;82.40
16674;DHT22;8450;52.654;10.326;2023-06-04T11:16:17;24.50;84.00
16674;DHT22;8450;52.654;10.326;2023-06-04T11:18:42;24.30;83.40
16674;DHT22;8450;52.654;10.326;2023-06-04T11:21:08;24.50;84.40
16674;DHT22;8450;52.654;10.326;2023-06-04T11:23:34;24.20;81.90
16674;DHT22;8450;52.654;10.326;2023-06-04T11:26:00;24.00;84.00
16674;DHT22;8450;52.654;10.326;2023-06-04T11:28:26;24.00;83.30
16674;DHT22;8450;52.654;10.326;2023-06-04T11:30:59;24.10;85.00
16674;DHT22;8450;52.654;10.326;2023-06-04T11:33:27;24.00;85.60
16674;DHT22;8450;52.654;10.326;2023-06-04T11:35:54;23.80;82.30
16674;DHT22;8450;52.654;10.326;2023-06-04T11:38:19;23.90;83.00
16674;DHT22;8450;52.654;10.326;2023-06-04T11:40:55;23.80;81.90
16674;DHT22;8450;52.654;10.326;2023-06-04T11:43:21;23.80;81.70
16674;DHT22;8450;52.654;10.326;2023-06-04T11:45:47;23.00;80.40
16674;DHT22;8450;52.654;10.326;2023-06-04T11:48:12;23.30;82.90
16674;DHT22;8450;52.654;10.326;2023-06-04T11:50:38;23.10;80.90
16674;DHT22;8450;52.654;10.326;2023-06-04T11:53:03;23.40;81.20
16674;DHT22;8450;52.654;10.326;2023-06-04T11:55:29;22.70;80.40
16674;DHT22;8450;52.654;10.326;2023-06-04T11:57:55;22.90;81.40
16674;DHT22;8450;52.654;10.326;2023-06-04T12:00:21;23.00;81.30
16674;DHT22;8450;52.654;10.326;2023-06-04T12:02:52;23.20;82.90
16674;DHT22;8450;52.654;10.326;2023-06-04T12:05:19;23.10;83.50
16674;DHT22;8450;52.654;10.326;2023-06-04T12:07:46;23.10;82.80
16674;DHT22;8450;52.654;10.326;2023-06-04T12:10:13;23.20;83.90
16674;DHT22;8450;52.654;10.326;2023-06-04T12:12:38;23.30;83.20
16674;DHT22;8450;52.654;10.326;2023-06-04T12:15:06;23.60;82.60
16674;DHT22;8450;52.654;10.326;2023-06-04T12:17:32;23.60;84.90
16674;DHT22;8450;52.654;10.326;2023-06-04T12:19:58;23.30;83.80
16674;DHT22;8450;52.654;10.326;2023-06-04T12:22:25;23.40;82.40
16674;DHT22;8450;52.654;10.326;2023-06-04T12:24:54;23.50;82.40
16674;DHT22;8450;52.654;10.326;2023-06-04T12:27:21;23.40;82.60
16674;DHT22;8450;52.654;10.326;2023-06-04T12:29:57;23.50;81.80
16674;DHT22;8450;52.654;10.326;2023-06-04T12:32:22;23.40;81.60
16674;DHT22;8450;52.654;10.326;2023-06-04T12:34:49;23.30;80.70
16674;DHT22;8450;52.654;10.326;2023-06-04T12:37:16;23.50;82.40
16674;DHT22;8450;52.654;10.326;2023-06-04T12:39:43;23.40;82.80
16674;DHT22;8450;52.654;10.326;2023-06-04T12:42:09;23.50;84.90
16674;DHT22;8450;52.654;10.326;2023-06-04T12:44:41;23.50;79.90
16674;DHT22;8450;52.654;10.326;2023-06-04T12:47:07;23.60;83.80
16674;DHT22;8450;52.654;10.326;2023-06-04T12:49:35;23.40;78.40
16674;DHT22;8450;52.654;10.326;2023-06-04T12:52:02;23.70;83.00
16674;DHT22;8450;52.654;10.326;2023-06-04T12:54:28;23.20;76.90
16674;DHT22;8450;52.654;10.326;2023-06-04T12:57:19;22.90;79.40
16674;DHT22;8450;52.654;10.326;2023-06-04T12:59:44;23.60;82.00
16674;DHT22;8450;52.654;10.326;2023-06-04T13:02:11;24.10;80.10
16674;DHT22;8450;52.654;10.326;2023-06-04T13:04:37;24.50;81.60
16674;DHT22;8450;52.654;10.326;2023-06-04T13:07:07;24.60;84.10
16674;DHT22;8450;52.654;10.326;2023-06-04T13:09:32;25.00;79.70
16674;DHT22;8450;52.654;10.326;2023-06-04T13:12:04;25.00;80.70
16674;DHT22;8450;52.654;10.326;2023-06-04T13:14:33;25.30;82.50
16674;DHT22;8450;52.654;10.326;2023-06-04T13:17:03;25.00;80.00
16674;DHT22;8450;52.654;10.326;2023-06-04T13:19:32;25.40;78.70
16674;DHT22;8450;52.654;10.326;2023-06-04T13:21:59;25.40;80.00
16674;DHT22;8450;52.654;10.326;2023-06-04T13:24:28;26.00;78.60
16674;DHT22;8450;52.654;10.326;2023-06-04T13:26:54;26.40;81.30
16674;DHT22;8450;52.654;10.326;2023-06-04T13:29:23;25.60;78.40
16674;DHT22;8450;52.654;10.326;2023-06-04T13:31:49;26.10;80.20
16674;DHT22;8450;52.654;10.326;2023-06-04T13:34:15;26.90;80.20
16674;DHT22;8450;52.654;10.326;2023-06-04T13:36:42;26.70;80.20
16674;DHT22;8450;52.654;10.326;2023-06-04T13:39:09;27.10;78.70
16674;DHT22;8450;52.654;10.326;2023-06-04T13:41:35;26.50;78.90
16674;DHT22;8450;52.654;10.326;2023-06-04T13:44:00;26.70;78.60
16674;DHT22;8450;52.654;10.326;2023-06-04T13:46:26;26.40;82.60
16674;DHT22;8450;52.654;10.326;2023-06-04T13:48:52;26.50;78.40
16674;DHT22;8450;52.654;10.326;2023-06-04T13:51:29;26.50;77.70
16674;DHT22;8450;52.654;10.326;2023-06-04T13:53:55;26.50;80.00
16674;DHT22;8450;52.654;10.326;2023-06-04T13:56:21;26.20;75.20
16674;DHT22;8450;52.654;10.326;2023-06-04T13:59:15;26.90;78.90
16674;DHT22;8450;52.654;10.326;2023-06-04T14:01:42;27.00;77.40
16674;DHT22;8450;52.654;10.326;2023-06-04T14:04:10;27.50;78.60
16674;DHT22;8450;52.654;10.326;2023-06-04T14:06:37;27.50;80.00
16674;DHT22;8450;52.654;10.326;2023-06-04T14:09:04;27.50;78.40
16674;DHT22;8450;52.654;10.326;2023-06-04T14:11:39;28.00;81.60
16674;DHT22;8450;52.654;10.326;2023-06-04T14:14:12;27.30;77.00
16674;DHT22;8450;52.654;10.326;2023-06-04T14:16:38;27.90;79.30
16674;DHT22;8450;52.654;10.326;2023-06-04T14:19:03;28.40;78.10
16674;DHT22;8450;52.654;10.326;2023-06-04T14:21:30;27.30;75.40
16674;DHT22;8450;52.654;10.326;2023-06-04T14:23:56;26.80;76.40
16674;DHT22;8450;52.654;10.326;2023-06-04T14:26:22;27.20;75.40
16674;DHT22;8450;52.654;10.326;2023-06-04T14:28:47;27.70;78.00
16674;DHT22;8450;52.654;10.326;2023-06-04T14:31:13;27.20;79.30
16674;DHT22;8450;52.654;10.326;2023-06-04T14:33:39;27.00;77.90
16674;DHT22;8450;52.654;10.326;2023-06-04T14:36:05;27.50;77.90
16674;DHT22;8450;52.654;10.326;2023-06-04T14:38:31;27.60;78.70
16674;DHT22;8450;52.654;10.326;2023-06-04T14:40:57;28.00;78.20
16674;DHT22;8450;52.654;10.326;2023-06-04T14:43:23;28.00;79.70
16674;DHT22;8450;52.654;10.326;2023-06-04T14:45:49;28.50;76.10
16674;DHT22;8450;52.654;10.326;2023-06-04T14:48:14;28.90;80.60
16674;DHT22;8450;52.654;10.326;2023-06-04T14:50:40;27.70;78.60
16674;DHT22;8450;52.654;10.326;2023-06-04T14:53:09;27.30;78.60
16674;DHT22;8450;52.654;10.326;2023-06-04T14:55:39;28.50;78.60
16674;DHT22;8450;52.654;10.326;2023-06-04T14:58:15;28.70;78.80
16674;DHT22;8450;52.654;10.326;2023-06-04T15:00:45;28.50;76.50
16674;DHT22;8450;52.654;10.326;2023-06-04T15:03:11;28.80;78.10
16674;DHT22;8450;52.654;10.326;2023-06-04T15:05:37;28.90;78.40
16674;DHT22;8450;52.654;10.326;2023-06-04T15:08:03;28.60;76.90
16674;DHT22;8450;52.654;10.326;2023-06-04T15:10:30;28.90;76.40
16674;DHT22;8450;52.654;10.326;2023-06-04T15:12:56;28.80;79.60
16674;DHT22;8450;52.654;10.326;2023-06-04T15:15:26;28.20;76.70
16674;DHT22;8450;52.654;10.326;2023-06-04T15:17:55;28.20;77.50
16674;DHT22;8450;52.654;10.326;2023-06-04T15:20:21;28.60;76.70
16674;DHT22;8450;52.654;10.326;2023-06-04T15:22:54;28.60;77.00
16674;DHT22;8450;52.654;10.326;2023-06-04T15:25:20;27.90;77.40
16674;DHT22;8450;52.654;10.326;2023-06-04T15:27:49;27.80;77.50
16674;DHT22;8450;52.654;10.326;2023-06-04T15:30:28;28.50;78.20
16674;DHT22;8450;52.654;10.326;2023-06-04T15:32:55;28.10;79.80
16674;DHT22;8450;52.654;10.326;2023-06-04T15:35:26;27.70;80.10
16674;DHT22;8450;52.654;10.326;2023-06-04T15:37:57;27.60;80.40
16674;DHT22;8450;52.654;10.326;2023-06-04T15:40:25;27.30;80.30
16674;DHT22;8450;52.654;10.326;2023-06-04T15:46:28;28.10;78.90
16674;DHT22;8450;52.654;10.326;2023-06-04T15:48:53;27.90;78.00
16674;DHT22;8450;52.654;10.326;2023-06-04T15:51:21;27.30;79.00
16674;DHT22;8450;52.654;10.326;2023-06-04T15:53:48;27.60;78.10
16674;DHT22;8450;52.654;10.326;2023-06-04T15:56:16;27.80;80.20
16674;DHT22;8450;52.654;10.326;2023-06-04T15:58:44;27.70;78.80
16674;DHT22;8450;52.654;10.326;2023-06-04T16:01:09;27.50;77.60
16674;DHT22;8450;52.654;10.326;2023-06-04T16:03:35;28.10;79.20
16674;DHT22;8450;52.654;10.326;2023-06-04T16:06:01;27.30;80.20
16674;DHT22;8450;52.654;10.326;2023-06-04T16:40:53;27.30;80.10
16674;DHT22;8450;52.654;10.326;2023-06-04T16:43:19;27.00;82.80
16674;DHT22;8450;52.654;10.326;2023-06-04T16:45:45;27.10;80.40
16674;DHT22;8450;52.654;10.326;2023-06-04T16:48:11;27.10;81.60
16674;DHT22;8450;52.654;10.326;2023-06-04T16:50:37;26.50;79.70
16674;DHT22;8450;52.654;10.326;2023-06-04T16:53:03;26.70;82.20
16674;DHT22;8450;52.654;10.326;2023-06-04T16:55:33;26.90;80.20
16674;DHT22;8450;52.654;10.326;2023-06-04T16:58:10;26.60;79.90
16674;DHT22;8450;52.654;10.326;2023-06-04T17:00:36;27.00;81.00
16674;DHT22;8450;52.654;10.326;2023-06-04T17:03:01;26.70;81.00
16674;DHT22;8450;52.654;10.326;2023-06-04T17:05:28;26.30;79.70
16674;DHT22;8450;52.654;10.326;2023-06-04T17:07:54;26.50;83.10
16674;DHT22;8450;52.654;10.326;2023-06-04T17:10:22;26.30;82.50
16674;DHT22;8450;52.654;10.326;2023-06-04T17:12:52;26.20;82.20
16674;DHT22;8450;52.654;10.326;2023-06-04T17:15:18;25.70;83.20
16674;DHT22;8450;52.654;10.326;2023-06-04T17:17:44;26.00;85.00
16674;DHT22;8450;52.654;10.326;2023-06-04T17:20:10;25.80;83.50
16674;DHT22;8450;52.654;10.326;2023-06-04T17:22:36;25.90;85.30
16674;DHT22;8450;52.654;10.326;2023-06-04T17:25:04;25.80;85.20
16674;DHT22;8450;52.654;10.326;2023-06-04T17:27:29;25.80;85.60
16674;DHT22;8450;52.654;10.326;2023-06-04T17:29:55;25.80;86.00
16674;DHT22;8450;52.654;10.326;2023-06-04T17:32:21;25.30;85.70
16674;DHT22;8450;52.654;10.326;2023-06-04T17:34:47;25.00;87.10
16674;DHT22;8450;52.654;10.326;2023-06-04T17:37:13;24.90;87.50
16674;DHT22;8450;52.654;10.326;2023-06-04T17:39:38;24.90;88.00
16674;DHT22;8450;52.654;10.326;2023-06-04T17:42:05;24.90;88.90
16674;DHT22;8450;52.654;10.326;2023-06-04T17:44:30;24.40;87.20
16674;DHT22;8450;52.654;10.326;2023-06-04T17:46:56;24.60;87.70
16674;DHT22;8450;52.654;10.326;2023-06-04T17:49:24;24.50;89.10
16674;DHT22;8450;52.654;10.326;2023-06-04T17:51:50;24.60;89.40
16674;DHT22;8450;52.654;10.326;2023-06-04T17:54:16;24.80;90.00
16674;DHT22;8450;52.654;10.326;2023-06-04T17:56:42;24.80;90.00
16674;DHT22;8450;52.654;10.326;2023-06-04T17:59:07;24.90;90.10
16674;DHT22;8450;52.654;10.326;2023-06-04T18:01:33;24.80;90.20
16674;DHT22;8450;52.654;10.326;2023-06-04T18:03:58;24.70;91.20
16674;DHT22;8450;52.654;10.326;2023-06-04T18:06:25;24.40;90.30
16674;DHT22;8450;52.654;10.326;2023-06-04T18:08:52;24.40;90.60
16674;DHT22;8450;52.654;10.326;2023-06-04T18:11:18;24.30;91.50
16674;DHT22;8450;52.654;10.326;2023-06-04T18:13:44;24.20;91.10
16674;DHT22;8450;52.654;10.326;2023-06-04T18:16:10;24.20;90.70
16674;DHT22;8450;52.654;10.326;2023-06-04T18:18:43;24.10;92.50
16674;DHT22;8450;52.654;10.326;2023-06-04T18:21:10;24.00;92.50
16674;DHT22;8450;52.654;10.326;2023-06-04T18:23:35;23.70;93.20
16674;DHT22;8450;52.654;10.326;2023-06-04T18:26:01;23.70;92.90
16674;DHT22;8450;52.654;10.326;2023-06-04T18:28:27;23.40;93.20
16674;DHT22;8450;52.654;10.326;2023-06-04T18:30:52;23.40;92.80
16674;DHT22;8450;52.654;10.326;2023-06-04T18:33:21;23.10;93.50
16674;DHT22;8450;52.654;10.326;2023-06-04T18:35:47;23.20;93.50
16674;DHT22;8450;52.654;10.326;2023-06-04T18:38:12;23.10;94.00
16674;DHT22;8450;52.654;10.326;2023-06-04T18:40:40;23.00;93.90
16674;DHT22;8450;52.654;10.326;2023-06-04T18:43:05;22.90;93.70
16674;DHT22;8450;52.654;10.326;2023-06-04T18:45:31;22.80;94.40
16674;DHT22;8450;52.654;10.326;2023-06-04T18:47:56;22.70;94.20
16674;DHT22;8450;52.654;10.326;2023-06-04T18:50:22;22.60;94.20
